Etusivu
METAR-TAF:

METAR-TAF

Lentoasemat :

Jedda, Saudi-Arabia

Kuningas Abdilazizin kansainvälinen lentoasema

Leveyspiiri: 21-42N, Pituuspiiri: 039-11E, korkeus merenpinnasta: 15 m

Tämänhetkinen sää

Tämä raportti tehtiin 1 tunti ja 8 minuuttia sitten, kello 18.00 UTC
Tuuli 9 kn pohjoisesta/koillisesta
Lämpötila 30°C
Kosteus 59%
Ilmanpaine 1005 hPa
Näkyvyys 10 km tai enemmän
ei pilviä alle 1500 m:ssä eikä cumulonimbus-pilviä

METAR: OEJN 231800Z 03009KT CAVOK 30/21 Q1005 NOSIG

Aika: 22:08 (19:08 UTC)

Sääennuste

Tämä raportti tehtiin 2 tuntia ja 8 minuuttia sitten, kello 17.00 UTC
Ennuste voimassa 23. päivästä klo 18 UTC - 24. päivään klo 24 UTC
Tuuli 8 kn pohjoisesta
Näkyvyys: 7000 m
selkeää
Tulossa
24. päivästä klo 06 UTC - 24. päivään klo 08 UTC
Tuuli 8 kn lännestä/luoteesta puuskistuen 18 kn:hen

TAF: OEJN 231700Z 2318/2424 36008KT 7000 SKC BECMG 2406/2408 30008G18KT

Säähavainnot ja -ennusteet yli 4000 lentoasemalta (METAR- ja TAF-raportit).

Käytössä olevat sääasemat on merkitty karttaan keltaisilla ja punaisilla pisteillä.

Aseta hiiri pisteen päälle nähdäksesi sääaseman nimen.

Klikkaa sitten nähdäksesi säähavainnot ja -ennusteet.

Kartan vaihtaminen: klikkaa mustalla rastilla varustettuja vihreitä pisteitä, niin voit zoomata sisään; viivalla varustettua vihreää pistettä, niin voit zoomata ulos tai vihreitä nuolia, niin pääset viereisille kartoille.


METAR-TAF: